Time,TemperatureF,DewpointF,PressureIn,WindDirection,WindDirectionDegrees,WindSpeedMPH,WindSpeedGustMPH,Humidity,HourlyPrecipIn,Conditions,Clouds,dailyrainin,SoftwareType,DateUTC
2013-02-12 00:00:00,66.8,65.9,30.06,SE,130,0.0,0.0,97,0.00,,---,0.00,VWS V14.01,2013-02-12 05:00:00,
2013-02-12 00:01:00,66.6,65.7,30.06,SE,130,0.0,0.0,97,0.00,,---,0.00,VWS V14.01,2013-02-12 05:01:00,
2013-02-12 00:02:00,66.4,65.2,30.05,SE,130,0.0,0.0,96,0.00,,---,0.00,VWS V14.01,2013-02-12 05:02:00,
2013-02-12 00:04:00,66.4,65.5,30.05,SE,130,0.0,0.0,97,0.00,,---,0.00,VWS V14.01,2013-02-12 05:04:00,
2013-02-12 00:09:00,66.4,65.8,30.05,SE,130,0.0,0.0,98,0.00,,---,0.00,VWS V14.01,2013-02-12 05:09:00,
2013-02-12 00:14:00,66.4,65.8,30.05,SE,130,0.0,0.0,98,0.00,,---,0.00,VWS V14.01,2013-02-12 05:14:00,
2013-02-12 00:19:00,66.3,65.7,30.05,SE,130,0.0,0.0,98,0.00,,---,0.00,VWS V14.01,2013-02-12 05:19:00,
2013-02-12 00:24:00,66.0,65.4,30.05,SE,130,0.0,0.0,98,0.00,,---,0.00,VWS V14.01,2013-02-12 05:24:00,
2013-02-12 00:29:00,66.0,65.4,30.05,SE,130,0.0,0.0,98,0.00,,---,0.00,VWS V14.01,2013-02-12 05:29:00,
2013-02-12 00:34:00,66.0,65.7,30.05,SE,130,0.0,0.0,99,0.00,,---,0.00,VWS V14.01,2013-02-12 05:34:00,
2013-02-12 00:41:00,66.1,65.5,30.05,SE,130,0.0,0.0,98,0.00,,---,0.00,VWS V14.01,2013-02-12 05:41:00,
2013-02-12 00:46:00,66.0,65.7,30.05,SE,130,0.0,0.0,99,0.00,,---,0.00,VWS V14.01,2013-02-12 05:46:00,
2013-02-12 00:51:00,65.8,65.5,30.05,SE,130,0.0,0.0,99,0.00,,---,0.00,VWS V14.01,2013-02-12 05:51:00,
2013-02-12 00:56:00,65.6,65.3,30.05,SE,130,0.0,0.0,99,0.00,,---,0.00,VWS V14.01,2013-02-12 05:56:00,
2013-02-12 01:01:00,65.5,65.5,30.05,SE,130,0.0,0.0,100,0.00,,---,0.00,VWS V14.01,2013-02-12 06:01:00,
2013-02-12 01:06:00,65.3,65.3,30.05,SE,130,0.0,0.0,100,0.00,,---,0.00,VWS V14.01,2013-02-12 06:06:00,
2013-02-12 01:11:00,65.2,65.2,30.05,SE,130,0.0,0.0,100,0.00,,---,0.00,VWS V14.01,2013-02-12 06:11:00,
2013-02-12 01:16:00,65.0,65.0,30.05,SE,130,0.0,0.0,100,0.00,,---,0.00,VWS V14.01,2013-02-12 06:16:00,
2013-02-12 01:21:00,64.8,64.8,30.05,SE,130,0.0,0.0,100,0.00,,---,0.00,VWS V14.01,2013-02-12 06:21:00,
2013-02-12 01:26:00,64.7,64.7,30.05,SE,130,0.0,0.0,100,0.00,,---,0.00,VWS V14.01,2013-02-12 06:26:00,
2013-02-12 01:32:00,64.5,64.5,30.04,SE,130,0.0,0.0,100,0.00,,---,0.00,VWS V14.01,2013-02-12 06:32:00,
2013-02-12 01:37:00,64.3,64.3,30.04,SE,130,0.0,0.0,100,0.00,,---,0.00,VWS V14.01,2013-02-12 06:37:00,
2013-02-12 01:42:00,64.3,64.3,30.04,SE,130,0.0,0.0,100,0.00,,---,0.00,VWS V14.01,2013-02-12 06:42:00,
2013-02-12 01:47:00,64.2,64.2,30.04,SE,130,0.0,0.0,100,0.00,,---,0.00,VWS V14.01,2013-02-12 06:47:00,
2013-02-12 01:52:00,64.3,64.3,30.04,SE,130,0.0,0.0,100,0.00,,---,0.00,VWS V14.01,2013-02-12 06:52:00,
2013-02-12 01:57:00,64.3,64.3,30.04,SE,130,0.0,0.0,100,0.00,,---,0.00,VWS V14.01,2013-02-12 06:57:00,
2013-02-12 02:02:00,64.3,64.3,30.03,SE,130,0.0,0.0,100,0.00,,---,0.00,VWS V14.01,2013-02-12 07:02:00,
2013-02-12 02:07:00,64.3,64.3,30.03,SE,130,0.0,0.0,100,0.00,,---,0.00,VWS V14.01,2013-02-12 07:07:00,
2013-02-12 02:12:00,64.3,64.3,30.03,SE,130,0.0,0.0,100,0.00,,---,0.00,VWS V14.01,2013-02-12 07:12:00,
2013-02-12 02:17:00,64.3,64.3,30.03,SE,130,0.0,0.0,100,0.00,,---,0.00,VWS V14.01,2013-02-12 07:17:00,
2013-02-12 02:22:00,64.5,64.5,30.03,SE,130,0.0,0.0,100,0.00,,---,0.00,VWS V14.01,2013-02-12 07:22:00,
2013-02-12 02:27:00,64.5,64.5,30.03,SE,130,0.0,0.0,100,0.00,,---,0.00,VWS V14.01,2013-02-12 07:27:00,
2013-02-12 02:32:00,64.3,64.3,30.03,SE,130,0.0,0.0,100,0.00,,---,0.00,VWS V14.01,2013-02-12 07:32:00,
2013-02-12 02:37:00,64.3,64.3,30.03,SE,130,0.0,0.0,100,0.00,,---,0.00,VWS V14.01,2013-02-12 07:37:00,
2013-02-12 02:42:00,64.3,64.3,30.03,SE,130,0.0,0.0,100,0.00,,---,0.00,VWS V14.01,2013-02-12 07:42:00,
2013-02-12 02:47:00,64.2,64.2,30.02,SE,130,0.0,0.0,100,0.00,,---,0.00,VWS V14.01,2013-02-12 07:47:00,
2013-02-12 02:52:00,64.0,64.0,30.02,SE,130,0.0,0.0,100,0.00,,---,0.00,VWS V14.01,2013-02-12 07:52:00,
2013-02-12 02:57:00,63.9,63.9,30.02,SE,130,0.0,0.0,100,0.00,,---,0.00,VWS V14.01,2013-02-12 07:57:00,
2013-02-12 03:03:00,64.0,64.0,30.02,SE,130,0.0,0.0,100,0.00,,---,0.00,VWS V14.01,2013-02-12 08:03:00,
2013-02-12 03:08:00,64.0,64.0,30.02,SE,130,0.0,0.0,100,0.00,,---,0.00,VWS V14.01,2013-02-12 08:08:00,
2013-02-12 03:13:00,64.0,64.0,30.02,SE,130,0.0,0.0,100,0.00,,---,0.00,VWS V14.01,2013-02-12 08:13:00,
2013-02-12 03:18:00,63.7,63.7,30.02,SE,130,0.0,0.0,100,0.00,,---,0.00,VWS V14.01,2013-02-12 08:18:00,
2013-02-12 03:23:00,63.7,63.7,30.02,SE,130,0.0,0.0,100,0.00,,---,0.00,VWS V14.01,2013-02-12 08:23:00,
2013-02-12 03:28:00,63.5,63.5,30.02,SE,130,0.0,0.0,100,0.00,,---,0.00,VWS V14.01,2013-02-12 08:28:00,
2013-02-12 03:33:00,63.4,63.4,30.02,SE,130,0.0,0.0,100,0.00,,---,0.00,VWS V14.01,2013-02-12 08:33:00,
2013-02-12 03:38:00,63.4,63.4,30.02,SE,130,0.0,0.0,100,0.00,,---,0.00,VWS V14.01,2013-02-12 08:38:00,
2013-02-12 03:43:00,63.4,63.4,30.02,SE,130,0.0,0.0,100,0.00,,---,0.00,VWS V14.01,2013-02-12 08:43:00,
2013-02-12 03:48:00,63.2,63.2,30.02,SE,130,0.0,0.0,100,0.00,,---,0.00,VWS V14.01,2013-02-12 08:48:00,
2013-02-12 03:53:00,63.2,63.2,30.02,SE,130,0.0,0.0,100,0.00,,---,0.00,VWS V14.01,2013-02-12 08:53:00,
2013-02-12 03:58:00,63.2,63.2,30.02,SE,130,0.0,0.0,100,0.00,,---,0.00,VWS V14.01,2013-02-12 08:58:00,
2013-02-12 04:03:00,63.1,63.1,30.02,SE,130,0.0,0.0,100,0.00,,---,0.00,VWS V14.01,2013-02-12 09:03:00,
2013-02-12 04:08:00,63.1,63.1,30.02,SE,130,0.0,0.0,100,0.00,,---,0.00,VWS V14.01,2013-02-12 09:08:00,
2013-02-12 04:13:00,63.1,63.1,30.02,SE,130,0.0,0.0,100,0.00,,---,0.00,VWS V14.01,2013-02-12 09:13:00,
2013-02-12 04:18:00,63.1,63.1,30.02,SE,130,0.0,0.0,100,0.00,,---,0.00,VWS V14.01,2013-02-12 09:18:00,
2013-02-12 04:23:00,63.1,63.1,30.02,SE,130,0.0,0.0,100,0.00,,---,0.00,VWS V14.01,2013-02-12 09:23:00,
2013-02-12 04:28:00,63.1,63.1,30.02,SE,130,0.0,0.0,100,0.00,,---,0.00,VWS V14.01,2013-02-12 09:28:00,
2013-02-12 04:34:00,63.1,63.1,30.02,SE,130,0.0,0.0,100,0.00,,---,0.00,VWS V14.01,2013-02-12 09:34:00,
2013-02-12 04:39:00,62.9,62.9,30.02,SE,130,0.0,0.0,100,0.00,,---,0.00,VWS V14.01,2013-02-12 09:39:00,
2013-02-12 04:44:00,62.9,62.9,30.02,SE,130,0.0,0.0,100,0.00,,---,0.00,VWS V14.01,2013-02-12 09:44:00,
2013-02-12 04:49:00,62.9,62.9,30.02,SE,130,0.0,0.0,100,0.00,,---,0.00,VWS V14.01,2013-02-12 09:49:00,
2013-02-12 04:54:00,62.9,62.9,30.02,SE,130,0.0,0.0,100,0.00,,---,0.00,VWS V14.01,2013-02-12 09:54:00,
2013-02-12 04:59:00,62.7,62.7,30.02,SE,130,0.0,0.0,100,0.00,,---,0.00,VWS V14.01,2013-02-12 09:59:00,
2013-02-12 05:04:00,62.7,62.7,30.02,SE,130,0.0,0.0,100,0.00,,---,0.00,VWS V14.01,2013-02-12 10:04:00,
2013-02-12 05:09:00,62.7,62.7,30.02,SE,130,0.0,0.0,100,0.00,,---,0.00,VWS V14.01,2013-02-12 10:09:00,
2013-02-12 05:14:00,62.7,62.7,30.02,SE,130,0.0,0.0,100,0.00,,---,0.00,VWS V14.01,2013-02-12 10:14:00,
2013-02-12 05:19:00,62.7,62.7,30.02,SE,130,0.0,0.0,100,0.00,,---,0.00,VWS V14.01,2013-02-12 10:19:00,
2013-02-12 05:24:00,62.6,62.6,30.02,SE,130,0.0,0.0,100,0.00,,---,0.00,VWS V14.01,2013-02-12 10:24:00,
2013-02-12 05:29:00,62.6,62.6,30.02,SE,130,0.0,0.0,100,0.00,,---,0.00,VWS V14.01,2013-02-12 10:29:00,
2013-02-12 05:34:00,62.4,62.4,30.02,SE,130,0.0,0.0,100,0.00,,---,0.00,VWS V14.01,2013-02-12 10:34:00,
2013-02-12 05:39:00,62.4,62.4,30.02,SE,130,0.0,0.0,100,0.00,,---,0.00,VWS V14.01,2013-02-12 10:39:00,
2013-02-12 05:44:00,62.4,62.4,30.02,SE,130,0.0,0.0,100,0.00,,---,0.00,VWS V14.01,2013-02-12 10:44:00,
2013-02-12 05:49:00,62.3,62.3,30.02,SE,130,0.0,0.0,100,0.00,,---,0.00,VWS V14.01,2013-02-12 10:49:00,
2013-02-12 05:54:00,62.3,62.3,30.02,SE,130,0.0,0.0,100,0.00,,---,0.00,VWS V14.01,2013-02-12 10:54:00,
2013-02-12 05:59:00,62.1,62.1,30.02,SE,130,0.0,0.0,100,0.00,,---,0.00,VWS V14.01,2013-02-12 10:59:00,
2013-02-12 06:04:00,62.1,62.1,30.02,SE,130,0.0,0.0,100,0.00,,---,0.00,VWS V14.01,2013-02-12 11:04:00,
2013-02-12 06:09:00,62.1,62.1,30.02,SE,130,0.0,0.0,100,0.00,,---,0.00,VWS V14.01,2013-02-12 11:09:00,
2013-02-12 06:14:00,62.1,62.1,30.02,SE,130,0.0,0.0,100,0.00,,---,0.00,VWS V14.01,2013-02-12 11:14:00,
2013-02-12 06:19:00,62.1,62.1,30.02,SE,130,0.0,0.0,100,0.00,,---,0.00,VWS V14.01,2013-02-12 11:19:00,
2013-02-12 06:25:00,62.1,62.1,30.02,SE,130,0.0,0.0,100,0.00,,---,0.00,VWS V14.01,2013-02-12 11:25:00,
2013-02-12 06:30:00,62.1,62.1,30.02,SE,130,0.0,0.0,100,0.00,,---,0.00,VWS V14.01,2013-02-12 11:30:00,
2013-02-12 06:35:00,62.3,62.3,30.02,SE,130,0.0,0.0,100,0.00,,---,0.00,VWS V14.01,2013-02-12 11:35:00,
2013-02-12 06:40:00,62.4,62.4,30.02,SE,130,0.0,0.0,100,0.00,,---,0.00,VWS V14.01,2013-02-12 11:40:00,
2013-02-12 06:45:00,62.4,62.4,30.02,SE,130,0.0,0.0,100,0.00,,---,0.00,VWS V14.01,2013-02-12 11:45:00,
2013-02-12 06:50:00,62.6,62.6,30.02,SE,130,0.0,0.0,100,0.00,,---,0.00,VWS V14.01,2013-02-12 11:50:00,
2013-02-12 06:55:00,62.6,62.6,30.02,SE,130,0.0,0.0,100,0.00,,---,0.00,VWS V14.01,2013-02-12 11:55:00,
2013-02-12 07:00:00,62.9,62.9,30.02,SE,130,0.0,0.0,100,0.00,,---,0.00,VWS V14.01,2013-02-12 12:00:00,
2013-02-12 07:05:00,62.9,62.9,30.02,SE,130,0.0,0.0,100,0.00,,---,0.00,VWS V14.01,2013-02-12 12:05:00,
2013-02-12 07:10:00,63.1,63.1,30.02,SE,130,0.0,0.0,100,0.00,,---,0.00,VWS V14.01,2013-02-12 12:10:00,
2013-02-12 07:15:00,63.2,63.2,30.02,SE,130,0.0,0.0,100,0.00,,---,0.00,VWS V14.01,2013-02-12 12:15:00,
2013-02-12 07:20:00,63.4,63.4,30.02,SE,130,0.0,0.0,100,0.00,,---,0.00,VWS V14.01,2013-02-12 12:20:00,
2013-02-12 07:25:00,63.4,63.4,30.02,SE,130,0.0,0.0,100,0.00,,---,0.00,VWS V14.01,2013-02-12 12:25:00,
2013-02-12 07:30:00,63.5,63.5,30.02,SE,130,0.0,0.0,100,0.00,,---,0.00,VWS V14.01,2013-02-12 12:30:00,
2013-02-12 07:35:00,63.9,63.9,30.03,SE,130,0.0,0.0,100,0.00,,---,0.00,VWS V14.01,2013-02-12 12:35:00,
2013-02-12 07:40:00,64.8,64.8,30.03,SE,130,0.0,0.0,100,0.00,,---,0.00,VWS V14.01,2013-02-12 12:40:00,
2013-02-12 07:45:00,65.6,65.6,30.03,SE,130,0.0,0.0,100,0.00,,---,0.00,VWS V14.01,2013-02-12 12:45:00,
2013-02-12 07:51:00,66.4,66.4,30.03,SE,131,0.0,0.0,100,0.00,,---,0.00,VWS V14.01,2013-02-12 12:51:00,
2013-02-12 07:56:00,66.9,66.9,30.03,SE,131,0.0,0.0,100,0.00,,---,0.00,VWS V14.01,2013-02-12 12:56:00,
2013-02-12 08:01:00,67.4,67.4,30.03,SE,131,0.0,0.0,100,0.00,,---,0.00,VWS V14.01,2013-02-12 13:01:00,
2013-02-12 08:06:00,68.1,68.1,30.03,SE,131,0.0,0.0,100,0.00,,---,0.00,VWS V14.01,2013-02-12 13:06:00,
2013-02-12 08:11:00,68.8,68.8,30.03,SE,131,0.0,1.0,100,0.00,,---,0.00,VWS V14.01,2013-02-12 13:11:00,
2013-02-12 08:16:00,69.4,69.4,30.03,SE,131,0.0,2.0,100,0.00,,---,0.00,VWS V14.01,2013-02-12 13:16:00,
2013-02-12 08:21:00,70.1,70.1,30.03,SE,131,0.0,2.0,100,0.00,,---,0.00,VWS V14.01,2013-02-12 13:21:00,
2013-02-12 08:26:00,70.6,70.6,30.03,SE,131,0.0,2.0,100,0.00,,---,0.00,VWS V14.01,2013-02-12 13:26:00,
2013-02-12 08:31:00,71.5,71.2,30.03,SE,131,1.0,2.0,99,0.00,,---,0.00,VWS V14.01,2013-02-12 13:31:00,
2013-02-12 08:36:00,72.1,70.9,30.03,SE,131,0.0,0.0,96,0.00,,---,0.00,VWS V14.01,2013-02-12 13:36:00,
2013-02-12 08:41:00,72.5,71.0,30.03,SE,131,0.0,1.0,95,0.00,,---,0.00,VWS V14.01,2013-02-12 13:41:00,
2013-02-12 08:46:00,73.2,71.4,30.03,SE,131,0.0,2.0,94,0.00,,---,0.00,VWS V14.01,2013-02-12 13:46:00,
2013-02-12 08:51:00,73.7,71.2,30.03,SE,132,0.0,2.0,92,0.00,,---,0.00,VWS V14.01,2013-02-12 13:51:00,
2013-02-12 08:56:00,74.0,70.9,30.03,SE,132,1.0,3.0,90,0.00,,---,0.00,VWS V14.01,2013-02-12 13:56:00,
2013-02-12 09:02:00,74.7,70.6,30.04,SE,133,2.0,3.0,87,0.00,,---,0.00,VWS V14.01,2013-02-12 14:02:00,
2013-02-12 09:07:00,75.3,70.5,30.04,SE,133,2.0,2.0,85,0.00,,---,0.00,VWS V14.01,2013-02-12 14:07:00,
2013-02-12 09:12:00,75.6,70.1,30.04,SE,134,0.0,4.0,83,0.00,,---,0.00,VWS V14.01,2013-02-12 14:12:00,
2013-02-12 09:17:00,76.3,70.8,30.04,SE,134,1.0,4.0,83,0.00,,---,0.00,VWS V14.01,2013-02-12 14:17:00,
2013-02-12 09:22:00,76.3,70.1,30.04,SSE,158,0.0,5.0,81,0.00,,---,0.00,VWS V14.01,2013-02-12 14:22:00,
2013-02-12 09:27:00,76.8,69.8,30.04,SSE,159,2.0,5.0,79,0.00,,---,0.00,VWS V14.01,2013-02-12 14:27:00,
2013-02-12 09:32:00,77.0,69.2,30.05,South,170,0.0,5.0,77,0.00,,---,0.00,VWS V14.01,2013-02-12 14:32:00,
2013-02-12 09:37:00,77.6,69.8,30.05,South,178,4.0,4.0,77,0.00,,---,0.00,VWS V14.01,2013-02-12 14:37:00,
2013-02-12 09:42:00,77.7,69.2,30.05,South,178,0.0,4.0,75,0.00,,---,0.00,VWS V14.01,2013-02-12 14:42:00,
2013-02-12 09:47:00,78.6,69.2,30.05,South,175,1.0,5.0,73,0.00,,---,0.00,VWS V14.01,2013-02-12 14:47:00,
2013-02-12 09:52:00,78.8,69.0,30.05,SSW,205,0.0,5.0,72,0.00,,---,0.00,VWS V14.01,2013-02-12 14:52:00,
2013-02-12 09:57:00,78.8,68.6,30.05,SSW,193,2.0,5.0,71,0.00,,---,0.00,VWS V14.01,2013-02-12 14:57:00,
2013-02-12 10:02:00,79.2,69.4,30.05,SE,139,1.0,1.0,72,0.00,,---,0.00,VWS V14.01,2013-02-12 15:02:00,
2013-02-12 10:07:00,79.8,68.7,30.05,SSE,147,0.0,3.0,69,0.00,,---,0.00,VWS V14.01,2013-02-12 15:07:00,
2013-02-12 10:12:00,79.4,68.8,30.05,SSW,199,0.0,4.0,70,0.00,,---,0.00,VWS V14.01,2013-02-12 15:12:00,
2013-02-12 10:17:00,79.8,67.9,30.05,SE,124,3.0,7.0,67,0.00,,---,0.00,VWS V14.01,2013-02-12 15:17:00,
2013-02-12 10:23:00,80.1,68.2,30.05,SW,217,6.0,7.0,67,0.00,,---,0.00,VWS V14.01,2013-02-12 15:23:00,
2013-02-12 10:28:00,80.1,68.2,30.05,South,179,5.0,7.0,67,0.00,,---,0.00,VWS V14.01,2013-02-12 15:28:00,
2013-02-12 10:33:00,80.3,67.5,30.05,SSW,202,2.0,3.0,65,0.00,,---,0.00,VWS V14.01,2013-02-12 15:33:00,
2013-02-12 10:38:00,80.9,68.5,30.05,SE,128,1.0,5.0,66,0.00,,---,0.00,VWS V14.01,2013-02-12 15:38:00,
2013-02-12 10:43:00,82.2,67.9,30.05,SE,128,1.0,5.0,62,0.00,,---,0.00,VWS V14.01,2013-02-12 15:43:00,
2013-02-12 10:48:00,82.2,67.9,30.05,SE,134,1.0,5.0,62,0.00,,---,0.00,VWS V14.01,2013-02-12 15:48:00,
2013-02-12 10:53:00,82.6,68.7,30.05,ESE,120,0.0,5.0,63,0.00,,---,0.00,VWS V14.01,2013-02-12 15:53:00,
2013-02-12 10:58:00,82.4,67.6,30.05,SSW,195,4.0,5.0,61,0.00,,---,0.00,VWS V14.01,2013-02-12 15:58:00,
2013-02-12 11:03:00,81.1,67.3,30.05,SW,217,0.0,3.0,63,0.00,,---,0.00,VWS V14.01,2013-02-12 16:03:00,
2013-02-12 11:08:00,83.0,68.2,30.05,SSE,164,4.0,4.0,61,0.00,,---,0.00,VWS V14.01,2013-02-12 16:08:00,
2013-02-12 11:13:00,82.4,67.1,30.05,SSW,192,2.0,5.0,60,0.00,,---,0.00,VWS V14.01,2013-02-12 16:13:00,
2013-02-12 11:18:00,82.8,67.5,30.04,SSW,194,2.0,5.0,60,0.00,,---,0.00,VWS V14.01,2013-02-12 16:18:00,
2013-02-12 11:23:00,82.0,66.8,30.04,SSW,211,4.0,9.0,60,0.00,,---,0.00,VWS V14.01,2013-02-12 16:23:00,
2013-02-12 11:28:00,82.0,66.3,30.04,SW,219,5.0,9.0,59,0.00,,---,0.00,VWS V14.01,2013-02-12 16:28:00,
2013-02-12 11:33:00,82.8,67.0,30.03,SSW,194,1.0,6.0,59,0.00,,---,0.00,VWS V14.01,2013-02-12 16:33:00,
2013-02-12 11:38:00,84.9,65.9,30.03,ESE,108,0.0,6.0,53,0.00,,---,0.00,VWS V14.01,2013-02-12 16:38:00,
2013-02-12 11:44:00,84.0,66.1,30.03,SE,136,3.0,6.0,55,0.00,,---,0.00,VWS V14.01,2013-02-12 16:44:00,
2013-02-12 11:49:00,82.8,65.5,30.03,SSW,211,2.0,6.0,56,0.00,,---,0.00,VWS V14.01,2013-02-12 16:49:00,
2013-02-12 11:54:00,84.0,65.1,30.03,SSW,200,2.0,6.0,53,0.00,,---,0.00,VWS V14.01,2013-02-12 16:54:00,
2013-02-12 11:59:00,86.1,65.9,30.03,SSW,204,1.0,6.0,51,0.00,,---,0.00,VWS V14.01,2013-02-12 16:59:00,
2013-02-12 12:04:00,87.0,66.7,30.02,SW,232,0.0,3.0,51,0.00,,---,0.00,VWS V14.01,2013-02-12 17:04:00,
2013-02-12 12:09:00,87.4,66.5,30.02,SSW,192,3.0,3.0,50,0.00,,---,0.00,VWS V14.01,2013-02-12 17:09:00,
2013-02-12 12:14:00,85.5,67.0,30.02,East,98,2.0,4.0,54,0.00,,---,0.00,VWS V14.01,2013-02-12 17:14:00,
2013-02-12 12:19:00,85.7,65.5,30.02,East,99,2.0,4.0,51,0.00,,---,0.00,VWS V14.01,2013-02-12 17:19:00,
2013-02-12 12:24:00,84.7,66.2,30.02,WSW,253,9.0,9.0,54,0.00,,---,0.00,VWS V14.01,2013-02-12 17:24:00,
2013-02-12 12:29:00,84.1,64.0,30.02,SSW,206,4.0,9.0,51,0.00,,---,0.00,VWS V14.01,2013-02-12 17:29:00,
2013-02-12 12:34:00,84.0,66.1,30.02,SW,218,4.0,5.0,55,0.00,,---,0.00,VWS V14.01,2013-02-12 17:34:00,
2013-02-12 12:39:00,83.6,65.2,30.02,WSW,253,2.0,5.0,54,0.00,,---,0.00,VWS V14.01,2013-02-12 17:39:00,
2013-02-12 12:44:00,83.4,65.6,30.02,WSW,244,4.0,5.0,55,0.00,,---,0.00,VWS V14.01,2013-02-12 17:44:00,
2013-02-12 12:49:00,82.4,63.0,30.01,WSW,244,3.0,5.0,52,0.00,,---,0.00,VWS V14.01,2013-02-12 17:49:00,
2013-02-12 12:54:00,83.6,64.7,30.01,WSW,244,2.0,5.0,53,0.00,,---,0.00,VWS V14.01,2013-02-12 17:54:00,
2013-02-12 12:59:00,85.9,63.3,30.01,WSW,244,0.0,5.0,47,0.00,,---,0.00,VWS V14.01,2013-02-12 17:59:00,
2013-02-12 13:04:00,85.3,64.6,30.00,WSW,245,6.0,6.0,50,0.00,,---,0.00,VWS V14.01,2013-02-12 18:04:00,
2013-02-12 13:09:00,83.8,63.8,30.00,WSW,248,5.0,6.0,51,0.00,,---,0.00,VWS V14.01,2013-02-12 18:09:00,
2013-02-12 13:14:00,82.8,63.9,30.00,WSW,250,2.0,6.0,53,0.00,,---,0.00,VWS V14.01,2013-02-12 18:14:00,
2013-02-12 13:20:00,84.5,63.3,29.99,WSW,254,3.0,12.0,49,0.00,,---,0.00,VWS V14.01,2013-02-12 18:20:00,
2013-02-12 13:25:00,83.8,64.3,29.99,SW,234,2.0,12.0,52,0.00,,---,0.00,VWS V14.01,2013-02-12 18:25:00,
2013-02-12 13:30:00,84.5,64.4,29.99,SW,232,7.0,12.0,51,0.00,,---,0.00,VWS V14.01,2013-02-12 18:30:00,
2013-02-12 13:35:00,84.1,65.1,29.98,SW,223,0.0,4.0,53,0.00,,---,0.00,VWS V14.01,2013-02-12 18:35:00,
2013-02-12 13:40:00,85.3,65.1,29.98,SSW,208,7.0,7.0,51,0.00,,---,0.00,VWS V14.01,2013-02-12 18:40:00,
2013-02-12 13:45:00,84.9,64.8,29.98,WSW,254,2.0,7.0,51,0.00,,---,0.00,VWS V14.01,2013-02-12 18:45:00,
2013-02-12 13:50:00,83.8,62.6,29.97,SSW,205,3.0,7.0,49,0.00,,---,0.00,VWS V14.01,2013-02-12 18:50:00,
2013-02-12 13:55:00,84.3,64.2,29.97,South,190,3.0,7.0,51,0.00,,---,0.00,VWS V14.01,2013-02-12 18:55:00,
2013-02-12 14:00:00,84.5,63.8,29.97,SSW,207,5.0,7.0,50,0.00,,---,0.00,VWS V14.01,2013-02-12 19:00:00,
2013-02-12 14:05:00,84.9,63.6,29.96,WSW,252,5.0,5.0,49,0.00,,---,0.00,VWS V14.01,2013-02-12 19:05:00,
2013-02-12 14:10:00,84.7,64.6,29.96,SSW,208,2.0,7.0,51,0.00,,---,0.00,VWS V14.01,2013-02-12 19:10:00,
2013-02-12 14:15:00,85.3,64.6,29.96,SSW,204,3.0,7.0,50,0.00,,---,0.00,VWS V14.01,2013-02-12 19:15:00,
2013-02-12 14:20:00,85.5,63.6,29.96,WSW,245,4.0,7.0,48,0.00,,---,0.00,VWS V14.01,2013-02-12 19:20:00,
2013-02-12 14:25:00,85.7,63.8,29.96,SSW,213,3.0,7.0,48,0.00,,---,0.00,VWS V14.01,2013-02-12 19:25:00,
2013-02-12 14:30:00,85.7,63.2,29.96,WSW,241,4.0,9.0,47,0.00,,---,0.00,VWS V14.01,2013-02-12 19:30:00,
2013-02-12 14:35:00,85.7,62.6,29.96,SSW,205,4.0,6.0,46,0.00,,---,0.00,VWS V14.01,2013-02-12 19:35:00,
2013-02-12 14:40:00,85.9,62.1,29.96,South,185,1.0,6.0,45,0.00,,---,0.00,VWS V14.01,2013-02-12 19:40:00,
2013-02-12 14:45:00,85.3,63.4,29.96,South,186,4.0,6.0,48,0.00,,---,0.00,VWS V14.01,2013-02-12 19:45:00,
2013-02-12 14:50:00,85.7,62.6,29.95,South,187,3.0,6.0,46,0.00,,---,0.00,VWS V14.01,2013-02-12 19:50:00,
2013-02-12 14:56:00,86.7,62.8,29.95,West,259,6.0,6.0,45,0.00,,---,0.00,VWS V14.01,2013-02-12 19:56:00,
2013-02-12 15:01:00,86.3,64.3,29.95,SW,231,2.0,6.0,48,0.00,,---,0.00,VWS V14.01,2013-02-12 20:01:00,
2013-02-12 15:06:00,87.6,63.7,29.94,SW,225,0.0,3.0,45,0.00,,---,0.00,VWS V14.01,2013-02-12 20:06:00,
2013-02-12 15:11:00,86.7,62.8,29.94,SW,227,3.0,6.0,45,0.00,,---,0.00,VWS V14.01,2013-02-12 20:11:00,
2013-02-12 15:16:00,86.3,64.3,29.94,SW,215,4.0,6.0,48,0.00,,---,0.00,VWS V14.01,2013-02-12 20:16:00,
2013-02-12 15:21:00,86.1,64.7,29.94,SSW,209,0.0,6.0,49,0.00,,---,0.00,VWS V14.01,2013-02-12 20:21:00,
2013-02-12 15:26:00,87.4,70.8,29.94,SE,130,5.0,6.0,58,0.00,,---,0.00,VWS V14.01,2013-02-12 20:26:00,
2013-02-12 15:31:00,86.7,70.7,29.92,SE,126,2.0,6.0,59,0.00,,---,0.00,VWS V14.01,2013-02-12 20:31:00,
2013-02-12 15:36:00,87.8,69.1,29.92,SE,132,2.0,3.0,54,0.00,,---,0.00,VWS V14.01,2013-02-12 20:36:00,
2013-02-12 15:41:00,87.2,70.1,29.92,SSE,153,3.0,6.0,57,0.00,,---,0.00,VWS V14.01,2013-02-12 20:41:00,
2013-02-12 15:46:00,87.6,70.5,29.92,SE,146,3.0,6.0,57,0.00,,---,0.00,VWS V14.01,2013-02-12 20:46:00,
2013-02-12 15:51:00,86.5,70.5,29.92,SE,136,3.0,6.0,59,0.00,,---,0.00,VWS V14.01,2013-02-12 20:51:00,
2013-02-12 15:56:00,85.1,70.6,29.92,SE,132,3.0,6.0,62,0.00,,---,0.00,VWS V14.01,2013-02-12 20:56:00,
2013-02-12 16:02:00,84.7,70.7,29.92,SSE,155,3.0,6.0,63,0.00,,---,0.00,VWS V14.01,2013-02-12 21:02:00,
2013-02-12 16:07:00,83.8,69.9,29.92,SE,136,1.0,5.0,63,0.00,,---,0.00,VWS V14.01,2013-02-12 21:07:00,
2013-02-12 16:12:00,84.7,69.8,29.92,SE,129,3.0,6.0,61,0.00,,---,0.00,VWS V14.01,2013-02-12 21:12:00,
2013-02-12 16:17:00,85.5,70.0,29.91,South,180,3.0,6.0,60,0.00,,---,0.00,VWS V14.01,2013-02-12 21:17:00,
2013-02-12 16:22:00,85.9,69.9,29.91,SW,215,2.0,8.0,59,0.00,,---,0.00,VWS V14.01,2013-02-12 21:22:00,
2013-02-12 16:27:00,84.3,69.9,29.91,SE,137,1.0,8.0,62,0.00,,---,0.00,VWS V14.01,2013-02-12 21:27:00,
2013-02-12 16:32:00,85.1,69.7,29.91,SSE,150,0.0,8.0,60,0.00,,---,0.00,VWS V14.01,2013-02-12 21:32:00,
2013-02-12 16:37:00,84.9,69.5,29.91,SE,134,5.0,6.0,60,0.00,,---,0.00,VWS V14.01,2013-02-12 21:37:00,
2013-02-12 16:42:00,84.3,69.9,29.91,ESE,123,1.0,6.0,62,0.00,,---,0.00,VWS V14.01,2013-02-12 21:42:00,
2013-02-12 16:47:00,83.8,69.4,29.91,SE,138,3.0,11.0,62,0.00,,---,0.00,VWS V14.01,2013-02-12 21:47:00,
2013-02-12 16:52:00,83.2,69.8,29.91,SSE,161,5.0,11.0,64,0.00,,---,0.00,VWS V14.01,2013-02-12 21:52:00,
2013-02-12 16:57:00,83.4,69.5,29.91,SSE,149,2.0,11.0,63,0.00,,---,0.00,VWS V14.01,2013-02-12 21:57:00,
2013-02-12 17:02:00,83.0,70.0,29.91,SSE,167,1.0,1.0,65,0.00,,---,0.00,VWS V14.01,2013-02-12 22:02:00,
2013-02-12 17:07:00,82.8,69.4,29.91,SE,124,0.0,4.0,64,0.00,,---,0.00,VWS V14.01,2013-02-12 22:07:00,
2013-02-12 17:13:00,82.6,69.7,29.91,SE,133,1.0,4.0,65,0.00,,---,0.00,VWS V14.01,2013-02-12 22:13:00,
2013-02-12 17:18:00,82.4,69.9,29.91,ESE,115,2.0,4.0,66,0.00,,---,0.00,VWS V14.01,2013-02-12 22:18:00,
2013-02-12 17:23:00,81.8,69.3,29.91,SSE,148,4.0,4.0,66,0.00,,---,0.00,VWS V14.01,2013-02-12 22:23:00,
2013-02-12 17:28:00,81.1,69.6,29.91,SSW,194,2.0,4.0,68,0.00,,---,0.00,VWS V14.01,2013-02-12 22:28:00,
2013-02-12 17:33:00,80.5,69.4,29.92,SSW,193,1.0,2.0,69,0.00,,---,0.00,VWS V14.01,2013-02-12 22:33:00,
2013-02-12 17:38:00,79.9,69.2,29.92,SSE,161,2.0,5.0,70,0.00,,---,0.00,VWS V14.01,2013-02-12 22:38:00,
2013-02-12 17:43:00,79.8,69.2,29.92,SSE,164,2.0,5.0,70,0.00,,---,0.00,VWS V14.01,2013-02-12 22:43:00,
2013-02-12 17:48:00,79.6,69.4,29.92,SE,144,0.0,5.0,71,0.00,,---,0.00,VWS V14.01,2013-02-12 22:48:00,
2013-02-12 17:53:00,79.2,69.4,29.92,South,169,2.0,5.0,72,0.00,,---,0.00,VWS V14.01,2013-02-12 22:53:00,
2013-02-12 17:59:00,79.0,69.6,29.92,South,169,2.0,6.0,73,0.00,,---,0.00,VWS V14.01,2013-02-12 22:59:00,
2013-02-12 18:04:00,78.6,69.2,29.92,SSE,163,2.0,2.0,73,0.00,,---,0.00,VWS V14.01,2013-02-12 23:04:00,
2013-02-12 18:09:00,78.5,69.5,29.92,South,181,1.0,3.0,74,0.00,,---,0.00,VWS V14.01,2013-02-12 23:09:00,
2013-02-12 18:14:00,78.3,69.7,29.92,SSE,162,1.0,3.0,75,0.00,,---,0.00,VWS V14.01,2013-02-12 23:14:00,
2013-02-12 18:19:00,77.9,69.3,29.92,SE,140,3.0,3.0,75,0.00,,---,0.00,VWS V14.01,2013-02-12 23:19:00,
2013-02-12 18:24:00,77.7,69.5,29.92,SE,130,5.0,6.0,76,0.00,,---,0.00,VWS V14.01,2013-02-12 23:24:00,
2013-02-12 18:29:00,77.6,69.4,29.92,SE,130,0.0,6.0,76,0.00,,---,0.00,VWS V14.01,2013-02-12 23:29:00,
2013-02-12 18:34:00,77.4,69.2,29.92,SE,131,1.0,4.0,76,0.00,,---,0.00,VWS V14.01,2013-02-12 23:34:00,
2013-02-12 18:39:00,77.4,69.6,29.92,SE,131,0.0,4.0,77,0.00,,---,0.00,VWS V14.01,2013-02-12 23:39:00,
2013-02-12 18:44:00,77.2,69.4,29.92,SE,131,2.0,5.0,77,0.00,,---,0.00,VWS V14.01,2013-02-12 23:44:00,
2013-02-12 18:49:00,76.8,69.4,29.92,SE,131,1.0,5.0,78,0.00,,---,0.00,VWS V14.01,2013-02-12 23:49:00,
2013-02-12 18:54:00,76.8,69.8,29.92,SSW,196,2.0,5.0,79,0.00,,---,0.00,VWS V14.01,2013-02-12 23:54:00,
2013-02-12 18:59:00,76.7,69.7,29.92,ESE,110,0.0,5.0,79,0.00,,---,0.00,VWS V14.01,2013-02-12 23:59:00,
2013-02-12 19:04:00,76.5,69.5,29.92,ESE,110,0.0,2.0,79,0.00,,---,0.00,VWS V14.01,2013-02-13 00:04:00,
2013-02-12 19:09:00,76.3,69.7,29.92,SE,129,2.0,3.0,80,0.00,,---,0.00,VWS V14.01,2013-02-13 00:09:00,
2013-02-12 19:15:00,76.1,69.5,29.92,SE,130,2.0,3.0,80,0.00,,---,0.00,VWS V14.01,2013-02-13 00:15:00,
2013-02-12 19:20:00,76.0,69.4,29.92,SE,130,0.0,3.0,80,0.00,,---,0.00,VWS V14.01,2013-02-13 00:20:00,
2013-02-12 19:25:00,75.8,69.6,29.92,SE,129,0.0,3.0,81,0.00,,---,0.00,VWS V14.01,2013-02-13 00:25:00,
2013-02-12 19:30:00,75.6,69.4,29.92,SE,140,0.0,5.0,81,0.00,,---,0.00,VWS V14.01,2013-02-13 00:30:00,
2013-02-12 19:35:00,75.4,69.5,29.92,SE,141,0.0,1.0,82,0.00,,---,0.00,VWS V14.01,2013-02-13 00:35:00,
2013-02-12 19:40:00,75.4,69.5,29.92,SE,141,0.0,1.0,82,0.00,,---,0.00,VWS V14.01,2013-02-13 00:40:00,
2013-02-12 19:45:00,75.3,69.8,29.92,SE,141,0.0,3.0,83,0.00,,---,0.00,VWS V14.01,2013-02-13 00:45:00,
2013-02-12 19:50:00,75.1,69.6,29.92,SE,144,0.0,3.0,83,0.00,,---,0.00,VWS V14.01,2013-02-13 00:50:00,
2013-02-12 19:55:00,74.9,69.4,29.92,SE,144,0.0,3.0,83,0.00,,---,0.00,VWS V14.01,2013-02-13 00:55:00,
2013-02-12 20:00:00,74.7,69.2,29.92,SE,144,0.0,3.0,83,0.00,,---,0.00,VWS V14.01,2013-02-13 01:00:00,
2013-02-12 20:05:00,74.7,69.2,29.92,SSE,150,1.0,3.0,83,0.00,,---,0.00,VWS V14.01,2013-02-13 01:05:00,
2013-02-12 20:10:00,74.6,69.1,29.92,SSE,150,1.0,3.0,83,0.00,,---,0.00,VWS V14.01,2013-02-13 01:10:00,
2013-02-12 20:15:00,74.6,69.1,29.92,SSE,150,1.0,3.0,83,0.00,,---,0.00,VWS V14.01,2013-02-13 01:15:00,
2013-02-12 20:20:00,74.4,69.3,29.93,SSE,150,0.0,3.0,84,0.00,,---,0.00,VWS V14.01,2013-02-13 01:20:00,
2013-02-12 20:25:00,74.4,68.9,29.93,SSE,150,0.0,3.0,83,0.00,,---,0.00,VWS V14.01,2013-02-13 01:25:00,
2013-02-12 20:30:00,74.4,68.9,29.93,SSE,150,1.0,3.0,83,0.00,,---,0.00,VWS V14.01,2013-02-13 01:30:00,
2013-02-12 20:35:00,74.2,69.1,29.93,SSE,150,0.0,1.0,84,0.00,,---,0.00,VWS V14.01,2013-02-13 01:35:00,
2013-02-12 20:40:00,74.0,68.9,29.93,SSE,150,0.0,1.0,84,0.00,,---,0.00,VWS V14.01,2013-02-13 01:40:00,
2013-02-12 20:45:00,74.0,69.2,29.93,SSE,150,0.0,1.0,85,0.00,,---,0.00,VWS V14.01,2013-02-13 01:45:00,
2013-02-12 20:51:00,73.9,69.1,29.94,SSE,150,1.0,1.0,85,0.00,,---,0.00,VWS V14.01,2013-02-13 01:51:00,
2013-02-12 20:56:00,73.7,69.6,29.94,SSE,150,0.0,1.0,87,0.00,,---,0.00,VWS V14.01,2013-02-13 01:56:00,
2013-02-12 21:01:00,73.5,69.7,29.94,SSE,150,1.0,1.0,88,0.00,,---,0.00,VWS V14.01,2013-02-13 02:01:00,
2013-02-12 21:06:00,73.3,69.5,29.94,SSE,150,0.0,0.0,88,0.00,,---,0.00,VWS V14.01,2013-02-13 02:06:00,
2013-02-12 21:11:00,73.3,69.5,29.94,SSE,150,0.0,0.0,88,0.00,,---,0.00,VWS V14.01,2013-02-13 02:11:00,
2013-02-12 21:16:00,73.3,69.9,29.94,SSE,150,0.0,1.0,89,0.00,,---,0.00,VWS V14.01,2013-02-13 02:16:00,
2013-02-12 21:21:00,73.5,70.1,29.95,SSE,150,0.0,1.0,89,0.00,,---,0.00,VWS V14.01,2013-02-13 02:21:00,
2013-02-12 21:26:00,73.7,70.3,29.95,SSE,150,0.0,1.0,89,0.00,,---,0.00,VWS V14.01,2013-02-13 02:26:00,
2013-02-12 21:31:00,73.7,70.3,29.95,SSE,150,0.0,1.0,89,0.00,,---,0.00,VWS V14.01,2013-02-13 02:31:00,
2013-02-12 21:36:00,73.7,70.3,29.95,SSE,150,0.0,0.0,89,0.00,,---,0.00,VWS V14.01,2013-02-13 02:36:00,
2013-02-12 21:41:00,73.9,70.5,29.95,SSE,150,0.0,0.0,89,0.00,,---,0.00,VWS V14.01,2013-02-13 02:41:00,
2013-02-12 21:46:00,73.7,70.3,29.96,SSE,150,0.0,0.0,89,0.00,,---,0.00,VWS V14.01,2013-02-13 02:46:00,
2013-02-12 21:51:00,73.5,70.4,29.96,SSE,150,0.0,0.0,90,0.00,,---,0.00,VWS V14.01,2013-02-13 02:51:00,
2013-02-12 21:56:00,73.3,70.2,29.96,SSE,150,0.0,0.0,90,0.00,,---,0.00,VWS V14.01,2013-02-13 02:56:00,
2013-02-12 22:01:00,73.3,70.5,29.96,SSE,150,0.0,0.0,91,0.00,,---,0.00,VWS V14.01,2013-02-13 03:01:00,
2013-02-12 22:06:00,73.3,70.5,29.96,SSE,150,0.0,0.0,91,0.00,,---,0.00,VWS V14.01,2013-02-13 03:06:00,
2013-02-12 22:11:00,73.0,70.2,29.96,SSE,150,0.0,0.0,91,0.00,,---,0.00,VWS V14.01,2013-02-13 03:11:00,
2013-02-12 22:17:00,72.7,70.2,29.96,SSE,150,0.0,0.0,92,0.00,,---,0.00,VWS V14.01,2013-02-13 03:17:00,
2013-02-12 22:22:00,72.3,70.2,29.96,SSE,150,0.0,0.0,93,0.00,,---,0.00,VWS V14.01,2013-02-13 03:22:00,
2013-02-12 22:27:00,72.0,70.2,29.96,SSE,150,0.0,0.0,94,0.00,,---,0.00,VWS V14.01,2013-02-13 03:27:00,
2013-02-12 22:32:00,71.6,70.1,29.96,SSE,150,0.0,0.0,95,0.00,,---,0.00,VWS V14.01,2013-02-13 03:32:00,
2013-02-12 22:37:00,71.5,70.3,29.96,SSE,150,0.0,0.0,96,0.00,,---,0.00,VWS V14.01,2013-02-13 03:37:00,
2013-02-12 22:42:00,71.1,70.2,29.96,SSE,150,0.0,0.0,97,0.00,,---,0.00,VWS V14.01,2013-02-13 03:42:00,
2013-02-12 22:47:00,70.6,69.7,29.96,SSE,150,0.0,0.0,97,0.00,,---,0.00,VWS V14.01,2013-02-13 03:47:00,
2013-02-12 22:52:00,70.4,69.8,29.96,SSE,150,0.0,0.0,98,0.00,,---,0.00,VWS V14.01,2013-02-13 03:52:00,
2013-02-12 22:57:00,70.1,69.5,29.96,SSE,150,0.0,0.0,98,0.00,,---,0.00,VWS V14.01,2013-02-13 03:57:00,
2013-02-12 23:02:00,70.3,70.0,29.96,SSE,150,0.0,0.0,99,0.00,,---,0.00,VWS V14.01,2013-02-13 04:02:00,
2013-02-12 23:07:00,70.1,69.8,29.96,SSE,150,0.0,0.0,99,0.00,,---,0.00,VWS V14.01,2013-02-13 04:07:00,
2013-02-12 23:12:00,69.9,69.6,29.96,SSE,150,0.0,0.0,99,0.00,,---,0.00,VWS V14.01,2013-02-13 04:12:00,
2013-02-12 23:17:00,69.8,69.5,29.96,SSE,150,0.0,0.0,99,0.00,,---,0.00,VWS V14.01,2013-02-13 04:17:00,
2013-02-12 23:22:00,69.8,69.8,29.96,SSE,150,0.0,0.0,100,0.00,,---,0.00,VWS V14.01,2013-02-13 04:22:00,
2013-02-12 23:27:00,69.6,69.6,29.96,SSE,150,0.0,0.0,100,0.00,,---,0.00,VWS V14.01,2013-02-13 04:27:00,
2013-02-12 23:32:00,69.4,69.4,29.96,SSE,150,0.0,0.0,100,0.00,,---,0.00,VWS V14.01,2013-02-13 04:32:00,
2013-02-12 23:38:00,69.3,69.3,29.96,SSE,150,0.0,0.0,100,0.00,,---,0.00,VWS V14.01,2013-02-13 04:38:00,
2013-02-12 23:43:00,68.9,68.9,29.96,SSE,150,0.0,0.0,100,0.00,,---,0.00,VWS V14.01,2013-02-13 04:43:00,
2013-02-12 23:48:00,68.8,68.8,29.95,SSE,150,0.0,0.0,100,0.00,,---,0.00,VWS V14.01,2013-02-13 04:48:00,
2013-02-12 23:53:00,68.8,68.8,29.95,SSE,150,0.0,0.0,100,0.00,,---,0.00,VWS V14.01,2013-02-13 04:53:00,
2013-02-12 23:58:00,68.8,68.8,29.95,SSE,150,0.0,0.0,100,0.00,,---,0.00,VWS V14.01,2013-02-13 04:58:00,